createdAt,value
2023-09-06T00:01:15.832Z,66.57
2023-09-06T00:03:46.291Z,67.01
2023-09-06T00:06:23.577Z,66.95
2023-09-06T00:08:56.200Z,67.05
2023-09-06T00:11:27.771Z,66.83
2023-09-06T00:13:57.846Z,67.25
2023-09-06T00:16:31.170Z,67.44
2023-09-06T00:19:01.759Z,67.49
2023-09-06T00:21:42.310Z,67.24
2023-09-06T00:24:16.034Z,67.15
2023-09-06T00:26:46.585Z,67.66
2023-09-06T00:29:18.408Z,67.53
2023-09-06T00:31:48.528Z,67.73
2023-09-06T00:34:18.818Z,67.55
2023-09-06T00:36:55.827Z,67.73
2023-09-06T00:39:29.516Z,67.99
2023-09-06T00:42:01.671Z,67.59
2023-09-06T00:44:34.535Z,67.96
2023-09-06T00:47:14.266Z,67.98
2023-09-06T00:49:45.481Z,67.74
2023-09-06T00:52:19.050Z,67.94
2023-09-06T00:54:51.703Z,68.16
2023-09-06T00:57:22.736Z,67.98
2023-09-06T00:59:54.738Z,67.99
2023-09-06T01:02:25.031Z,68.12
2023-09-06T01:04:58.844Z,68.22
2023-09-06T01:07:36.152Z,68.01
2023-09-06T01:10:07.518Z,68.12
2023-09-06T01:12:38.929Z,68.20
2023-09-06T01:15:14.358Z,68.15
2023-09-06T01:17:46.404Z,68.15
2023-09-06T01:20:22.081Z,68.25
2023-09-06T01:23:03.943Z,68.25
2023-09-06T01:25:39.903Z,68.32
2023-09-06T01:28:10.287Z,68.29
2023-09-06T01:30:41.057Z,67.87
2023-09-06T01:33:11.268Z,68.21
2023-09-06T01:35:41.857Z,68.16
2023-09-06T01:38:16.196Z,68.05
2023-09-06T01:40:50.214Z,68.17
2023-09-06T01:43:21.077Z,68.46
2023-09-06T01:45:53.323Z,68.26
2023-09-06T01:48:28.427Z,68.26
2023-09-06T01:50:59.564Z,70.59
2023-09-06T01:53:33.835Z,68.57
2023-09-06T01:56:08.578Z,68.26
2023-09-06T01:58:39.807Z,68.56
2023-09-06T02:01:11.327Z,68.45
2023-09-06T02:03:42.460Z,68.30
2023-09-06T02:06:13.618Z,68.75
2023-09-06T02:08:43.844Z,68.89
2023-09-06T02:11:20.191Z,68.71
2023-09-06T02:13:51.390Z,68.89
2023-09-06T02:16:23.271Z,68.71
2023-09-06T02:18:53.980Z,68.88
2023-09-06T02:21:27.527Z,69.13
2023-09-06T02:23:58.436Z,69.13
2023-09-06T02:26:31.858Z,68.74
2023-09-06T02:29:05.562Z,69.12
2023-09-06T02:31:35.652Z,68.94
2023-09-06T02:34:06.121Z,69.13
2023-09-06T02:36:36.175Z,68.95
2023-09-06T02:39:06.384Z,68.95
2023-09-06T02:41:39.185Z,68.94
2023-09-06T02:44:11.668Z,68.96
2023-09-06T02:46:41.777Z,69.11
2023-09-06T02:49:15.243Z,69.11
2023-09-06T02:51:54.126Z,69.12
2023-09-06T02:54:24.532Z,68.87
2023-09-06T02:56:58.702Z,69.14
2023-09-06T02:59:31.610Z,69.09
2023-09-06T03:02:02.731Z,69.32
2023-09-06T03:04:39.254Z,69.28
2023-09-06T03:07:10.813Z,69.18
2023-09-06T03:09:46.320Z,69.39
2023-09-06T03:12:23.132Z,69.34
2023-09-06T03:14:56.950Z,69.31
2023-09-06T03:17:27.245Z,71.54
2023-09-06T03:20:01.103Z,69.75
2023-09-06T03:22:31.638Z,72.02
2023-09-06T03:25:04.390Z,69.59
2023-09-06T03:27:37.397Z,69.77
2023-09-06T03:30:09.345Z,69.30
2023-09-06T03:32:43.871Z,69.38
2023-09-06T03:35:17.529Z,69.55
2023-09-06T03:37:49.615Z,69.48
2023-09-06T03:40:26.838Z,69.50
2023-09-06T03:43:16.131Z,69.53
2023-09-06T03:45:52.575Z,69.38
2023-09-06T03:48:25.298Z,69.68
2023-09-06T03:50:59.142Z,69.79
2023-09-06T03:53:30.866Z,69.74
2023-09-06T03:56:02.103Z,69.50
2023-09-06T03:59:01.965Z,69.63
2023-09-06T04:01:34.433Z,69.83
2023-09-06T04:04:14.321Z,70.05
2023-09-06T04:06:45.553Z,69.82
2023-09-06T04:09:20.207Z,70.14
2023-09-06T04:11:50.717Z,70.06
2023-09-06T04:14:26.679Z,70.36
2023-09-06T04:17:00.998Z,71.20
2023-09-06T04:19:35.253Z,71.27
2023-09-06T04:22:14.402Z,71.86
2023-09-06T04:24:47.452Z,71.56
2023-09-06T04:27:17.872Z,71.75
2023-09-06T04:29:53.977Z,71.56
2023-09-06T04:32:24.456Z,71.85
2023-09-06T04:35:06.559Z,71.94
2023-09-06T04:37:39.521Z,71.98
2023-09-06T04:40:15.749Z,71.78
2023-09-06T04:42:50.822Z,71.85
2023-09-06T04:45:31.659Z,71.75
2023-09-06T04:48:04.393Z,71.72
2023-09-06T04:50:39.380Z,71.98
2023-09-06T04:53:13.144Z,72.52
2023-09-06T04:55:44.013Z,72.73
2023-09-06T04:58:15.456Z,72.24
2023-09-06T05:00:50.783Z,72.84
2023-09-06T05:03:23.728Z,72.84
2023-09-06T05:05:57.978Z,73.12
2023-09-06T05:08:34.618Z,72.90
2023-09-06T05:11:21.732Z,72.28
2023-09-06T05:13:55.556Z,72.47
2023-09-06T05:16:30.346Z,72.96
2023-09-06T05:19:02.474Z,72.88
2023-09-06T05:21:41.169Z,71.91
2023-09-06T05:24:16.240Z,71.54
2023-09-06T05:26:46.625Z,71.24
2023-09-06T05:29:19.748Z,71.46
2023-09-06T05:31:52.688Z,71.11
2023-09-06T05:34:23.138Z,71.11
2023-09-06T05:36:56.063Z,71.19
2023-09-06T05:39:26.553Z,70.47
2023-09-06T05:41:58.093Z,69.72
2023-09-06T05:44:28.526Z,69.40
2023-09-06T05:47:17.046Z,68.61
2023-09-06T05:50:03.958Z,65.95
2023-09-06T05:52:37.658Z,64.91
2023-09-06T05:55:09.455Z,64.32
2023-09-06T05:57:42.459Z,64.50
2023-09-06T06:00:27.163Z,64.93
2023-09-06T06:03:03.376Z,65.48
2023-09-06T06:05:34.111Z,65.35
2023-09-06T06:08:04.231Z,65.51
2023-09-06T06:10:36.397Z,65.35
2023-09-06T06:13:08.535Z,65.76
2023-09-06T06:15:41.583Z,65.74
2023-09-06T06:18:18.980Z,65.44
2023-09-06T06:20:56.419Z,65.34
2023-09-06T06:23:31.432Z,65.33
2023-09-06T06:26:01.778Z,65.21
2023-09-06T06:28:32.201Z,65.39
2023-09-06T06:31:05.161Z,65.31
2023-09-06T06:33:56.307Z,65.35
2023-09-06T06:36:26.553Z,65.42
2023-09-06T06:38:57.963Z,65.40
2023-09-06T06:41:30.872Z,65.03
2023-09-06T06:44:01.093Z,64.91
2023-09-06T06:46:33.342Z,65.32
2023-09-06T06:51:52.490Z,65.14
2023-09-06T06:54:24.690Z,65.26
2023-09-06T06:56:54.835Z,65.22
2023-09-06T06:59:32.678Z,65.18
2023-09-06T07:02:06.987Z,65.47
2023-09-06T07:04:41.153Z,65.17
2023-09-06T07:07:11.682Z,65.06
2023-09-06T07:09:48.592Z,64.78
2023-09-06T07:12:23.043Z,65.37
2023-09-06T07:14:55.525Z,64.70
2023-09-06T07:17:27.693Z,64.74
2023-09-06T07:20:01.306Z,64.70
2023-09-06T07:22:32.355Z,64.52
2023-09-06T07:25:06.537Z,64.86
2023-09-06T07:27:37.704Z,64.48
2023-09-06T07:30:11.090Z,64.64
2023-09-06T07:32:48.456Z,64.61
2023-09-06T07:35:21.329Z,64.23
2023-09-06T07:37:52.200Z,64.31
2023-09-06T07:40:22.649Z,63.86
2023-09-06T07:42:53.509Z,63.91
2023-09-06T07:45:27.861Z,63.29
2023-09-06T07:47:59.710Z,63.48
2023-09-06T07:50:33.652Z,63.31
2023-09-06T07:53:06.069Z,62.98
2023-09-06T07:55:36.133Z,63.36
2023-09-06T07:58:11.589Z,63.25
2023-09-06T08:00:43.893Z,63.13
2023-09-06T08:03:14.667Z,62.70
2023-09-06T08:05:48.122Z,62.68
2023-09-06T08:08:20.718Z,62.77
2023-09-06T08:10:51.070Z,62.46
2023-09-06T08:13:44.467Z,62.37
2023-09-06T08:16:14.910Z,62.41
2023-09-06T08:18:49.316Z,62.15
2023-09-06T08:21:24.781Z,61.76
2023-09-06T08:23:54.935Z,61.62
2023-09-06T08:26:25.164Z,61.70
2023-09-06T08:28:57.959Z,61.41
2023-09-06T08:31:28.218Z,61.79
2023-09-06T08:33:58.780Z,61.57
2023-09-06T08:36:33.252Z,61.17
2023-09-06T08:39:03.319Z,61.15
2023-09-06T08:41:49.337Z,61.13
2023-09-06T08:44:40.818Z,61.36
2023-09-06T08:47:17.966Z,60.98
2023-09-06T08:49:50.407Z,60.56
2023-09-06T08:52:23.458Z,60.95
2023-09-06T08:54:56.677Z,60.31
2023-09-06T08:57:30.480Z,60.53
2023-09-06T09:00:03.399Z,60.00
2023-09-06T09:02:34.766Z,60.05
2023-09-06T09:05:19.020Z,59.82
2023-09-06T09:08:01.902Z,60.29
2023-09-06T09:10:35.639Z,60.00
2023-09-06T09:13:14.356Z,60.25
2023-09-06T09:15:44.576Z,60.01
2023-09-06T09:18:16.606Z,59.79
2023-09-06T09:20:48.835Z,59.27
2023-09-06T09:23:21.528Z,59.14
2023-09-06T09:25:52.107Z,59.30
2023-09-06T09:28:32.255Z,59.14
2023-09-06T09:31:02.537Z,59.06
2023-09-06T09:33:36.634Z,59.57
2023-09-06T09:36:07.501Z,58.86
2023-09-06T09:38:44.747Z,58.92
2023-09-06T09:44:17.630Z,58.34
2023-09-06T09:46:49.142Z,58.20
2023-09-06T09:49:24.498Z,58.44
2023-09-06T09:51:55.015Z,58.58
2023-09-06T09:54:29.744Z,58.51
2023-09-06T09:57:08.118Z,57.94
2023-09-06T09:59:44.704Z,58.51
2023-09-06T10:02:22.478Z,58.59
2023-09-06T10:05:04.268Z,58.08
2023-09-06T10:07:48.761Z,57.96
2023-09-06T10:10:22.620Z,57.75
2023-09-06T10:12:54.703Z,58.11
2023-09-06T10:15:26.409Z,57.91
2023-09-06T10:18:00.176Z,57.94
2023-09-06T10:20:33.530Z,57.79
2023-09-06T10:23:06.119Z,57.68
2023-09-06T10:25:43.551Z,57.72
2023-09-06T10:28:13.610Z,57.07
2023-09-06T10:30:47.201Z,57.48
2023-09-06T10:33:50.021Z,56.02
2023-09-06T10:36:21.611Z,57.34
2023-09-06T10:39:20.040Z,57.49
2023-09-06T10:42:23.822Z,57.30
2023-09-06T10:45:18.707Z,57.50
2023-09-06T10:47:49.394Z,57.21
2023-09-06T10:50:22.093Z,57.35
2023-09-06T10:52:59.985Z,56.87
2023-09-06T10:55:31.930Z,56.73
2023-09-06T10:58:14.234Z,56.79
2023-09-06T11:00:44.772Z,56.53
2023-09-06T11:03:23.301Z,56.43
2023-09-06T11:06:00.229Z,56.17
2023-09-06T11:08:34.313Z,56.78
2023-09-06T11:11:06.379Z,56.98
2023-09-06T11:13:40.484Z,56.65
2023-09-06T11:16:17.285Z,56.83
2023-09-06T11:18:49.013Z,56.65
2023-09-06T11:21:24.485Z,56.55
2023-09-06T11:23:57.692Z,56.30
2023-09-06T11:26:29.678Z,56.60
2023-09-06T11:29:13.437Z,55.25
2023-09-06T11:31:43.379Z,49.58
2023-09-06T11:34:15.566Z,55.49
2023-09-06T11:36:46.040Z,55.96
2023-09-06T11:39:20.577Z,56.08
2023-09-06T11:41:51.779Z,55.98
2023-09-06T11:44:27.852Z,55.30
2023-09-06T11:47:04.510Z,54.93
2023-09-06T11:49:46.428Z,54.95
2023-09-06T11:52:24.828Z,55.15
2023-09-06T11:55:04.802Z,55.40
2023-09-06T11:57:35.260Z,54.94
2023-09-06T12:00:19.417Z,54.96
2023-09-06T12:02:50.741Z,54.73
2023-09-06T12:05:42.477Z,53.60
2023-09-06T12:08:21.133Z,54.60
2023-09-06T12:11:07.625Z,54.34
2023-09-06T12:13:39.793Z,55.11
2023-09-06T12:16:14.367Z,53.23
2023-09-06T12:18:44.542Z,54.54
2023-09-06T12:21:16.734Z,54.60
2023-09-06T12:23:48.810Z,54.69
2023-09-06T12:26:21.017Z,54.70
2023-09-06T12:28:54.633Z,54.45
2023-09-06T12:31:27.147Z,46.96
2023-09-06T12:33:57.384Z,54.81
2023-09-06T12:36:28.353Z,54.52
2023-09-06T12:39:07.746Z,53.90
2023-09-06T12:41:38.821Z,54.73
2023-09-06T12:44:11.382Z,54.75
2023-09-06T12:46:44.182Z,54.33
2023-09-06T12:49:16.538Z,54.21
2023-09-06T12:51:49.536Z,54.52
2023-09-06T12:54:21.162Z,53.97
2023-09-06T12:56:51.253Z,53.68
2023-09-06T12:59:23.850Z,54.04
2023-09-06T13:01:56.749Z,53.92
2023-09-06T13:04:27.046Z,53.92
2023-09-06T13:06:58.629Z,53.29
2023-09-06T13:09:28.669Z,53.71
2023-09-06T13:11:58.787Z,54.17
2023-09-06T13:14:31.449Z,52.67
2023-09-06T13:17:13.903Z,53.43
2023-09-06T13:19:47.371Z,53.14
2023-09-06T13:22:18.648Z,46.34
2023-09-06T13:24:50.195Z,53.26
2023-09-06T13:27:21.382Z,53.28
2023-09-06T13:29:56.463Z,52.71
2023-09-06T13:32:29.187Z,53.18
2023-09-06T13:34:59.473Z,53.53
2023-09-06T13:37:33.469Z,53.14
2023-09-06T13:40:12.758Z,53.27
2023-09-06T13:42:45.501Z,52.19
2023-09-06T13:45:19.096Z,52.62
2023-09-06T13:47:53.913Z,46.47
2023-09-06T13:50:24.101Z,52.86
2023-09-06T13:52:58.035Z,52.06
2023-09-06T13:55:29.670Z,52.27
2023-09-06T13:57:59.867Z,52.88
2023-09-06T14:00:30.074Z,52.64
2023-09-06T14:03:03.457Z,52.64
2023-09-06T14:05:34.550Z,44.10
2023-09-06T14:08:04.820Z,52.23
2023-09-06T14:10:34.963Z,51.99
2023-09-06T14:13:05.016Z,52.47
2023-09-06T14:15:37.401Z,52.21
2023-09-06T14:18:10.461Z,52.33
2023-09-06T14:20:41.000Z,51.88
2023-09-06T14:23:15.301Z,51.59
2023-09-06T14:25:45.565Z,51.89
2023-09-06T14:28:16.020Z,51.84
2023-09-06T14:30:49.809Z,51.65
2023-09-06T14:33:22.541Z,51.70
2023-09-06T14:35:54.876Z,51.31
2023-09-06T14:38:27.007Z,51.28
2023-09-06T14:40:59.382Z,51.48
2023-09-06T14:43:30.061Z,51.60
2023-09-06T14:46:06.396Z,51.19
2023-09-06T14:48:39.218Z,51.39
2023-09-06T14:51:09.606Z,51.25
2023-09-06T14:53:40.297Z,51.80
2023-09-06T14:56:16.692Z,51.83
2023-09-06T14:58:47.040Z,51.11
2023-09-06T15:01:17.443Z,51.44
2023-09-06T15:03:50.461Z,51.62
2023-09-06T15:06:23.636Z,51.12
2023-09-06T15:08:57.568Z,51.51
2023-09-06T15:11:31.539Z,51.94
2023-09-06T15:14:01.723Z,51.84
2023-09-06T15:16:31.769Z,51.69
2023-09-06T15:19:04.744Z,52.35
2023-09-06T15:21:36.044Z,51.93
2023-09-06T15:24:06.646Z,52.19
2023-09-06T15:26:37.925Z,52.33
2023-09-06T15:29:08.026Z,51.79
2023-09-06T15:31:38.185Z,51.65
2023-09-06T15:34:11.743Z,51.49
2023-09-06T15:36:44.311Z,51.59
2023-09-06T15:39:15.109Z,51.70
2023-09-06T15:41:47.962Z,51.96
2023-09-06T15:44:18.183Z,51.81
2023-09-06T15:46:49.199Z,51.76
2023-09-06T15:49:22.180Z,52.11
2023-09-06T15:51:53.746Z,51.73
2023-09-06T15:54:24.428Z,51.44
2023-09-06T15:56:56.418Z,51.78
2023-09-06T15:59:27.177Z,52.14
2023-09-06T16:01:57.336Z,52.21
2023-09-06T16:04:32.426Z,51.43
2023-09-06T16:07:03.020Z,51.69
2023-09-06T16:09:33.063Z,51.19
2023-09-06T16:12:03.160Z,51.16
2023-09-06T16:14:34.118Z,51.40
2023-09-06T16:17:05.097Z,51.48
2023-09-06T16:19:37.972Z,51.35
2023-09-06T16:22:08.427Z,51.17
2023-09-06T16:24:42.702Z,52.06
2023-09-06T16:27:13.270Z,52.36
2023-09-06T16:29:49.529Z,52.01
2023-09-06T16:32:19.723Z,52.64
2023-09-06T16:34:54.846Z,52.63
2023-09-06T16:37:24.898Z,53.01
2023-09-06T16:39:56.087Z,52.79
2023-09-06T16:42:26.100Z,52.50
2023-09-06T16:44:56.729Z,52.42
2023-09-06T16:47:27.219Z,52.42
2023-09-06T16:50:01.863Z,52.93
2023-09-06T16:52:34.099Z,52.66
2023-09-06T16:55:06.164Z,52.70
2023-09-06T16:57:36.315Z,52.73
2023-09-06T17:00:10.320Z,52.74
2023-09-06T17:02:41.038Z,52.85
2023-09-06T17:05:14.308Z,52.51
2023-09-06T17:07:47.644Z,48.34
2023-09-06T17:10:20.609Z,52.93
2023-09-06T17:12:51.092Z,52.76
2023-09-06T17:15:34.871Z,53.23
2023-09-06T17:18:04.953Z,48.12
2023-09-06T17:20:38.187Z,52.94
2023-09-06T17:23:08.892Z,53.10
2023-09-06T17:25:43.336Z,53.47
2023-09-06T17:28:14.188Z,53.68
2023-09-06T17:30:45.240Z,53.27
2023-09-06T17:33:25.857Z,53.91
2023-09-06T17:35:58.571Z,53.69
2023-09-06T17:38:28.896Z,53.95
2023-09-06T17:41:00.374Z,53.48
2023-09-06T17:43:31.492Z,53.94
2023-09-06T17:46:02.648Z,53.90
2023-09-06T17:48:45.633Z,53.84
2023-09-06T17:51:18.885Z,54.11
2023-09-06T17:53:49.196Z,53.87
2023-09-06T17:56:25.069Z,54.06
2023-09-06T17:58:55.619Z,54.36
2023-09-06T18:01:27.496Z,54.29
2023-09-06T18:03:59.859Z,54.73
2023-09-06T18:06:32.881Z,54.79
2023-09-06T18:09:09.088Z,54.94
2023-09-06T18:11:39.175Z,54.80
2023-09-06T18:14:10.913Z,54.98
2023-09-06T18:16:43.776Z,55.31
2023-09-06T18:19:14.232Z,55.09
2023-09-06T18:21:50.766Z,55.18
2023-09-06T18:24:22.656Z,55.37
2023-09-06T18:27:06.963Z,55.12
2023-09-06T18:29:38.303Z,55.51
2023-09-06T18:32:10.741Z,55.27
2023-09-06T18:34:40.830Z,55.02
2023-09-06T18:37:13.809Z,55.36
2023-09-06T18:39:46.305Z,55.32
2023-09-06T18:42:20.440Z,55.29
2023-09-06T18:44:53.383Z,55.16
2023-09-06T18:47:23.617Z,55.30
2023-09-06T18:49:59.356Z,55.30
2023-09-06T18:52:32.121Z,55.76
2023-09-06T18:55:10.554Z,55.94
2023-09-06T18:57:55.007Z,55.88
2023-09-06T19:00:40.958Z,55.90
2023-09-06T19:03:14.566Z,55.74
2023-09-06T19:05:47.284Z,56.19
2023-09-06T19:08:20.245Z,56.46
2023-09-06T19:10:54.152Z,56.03
2023-09-06T19:13:24.589Z,56.61
2023-09-06T19:15:56.566Z,56.12
2023-09-06T19:18:27.016Z,56.27
2023-09-06T19:20:58.480Z,56.23
2023-09-06T19:23:33.159Z,56.24
2023-09-06T19:26:06.319Z,56.65
2023-09-06T19:28:38.376Z,56.23
2023-09-06T19:31:10.764Z,56.85
2023-09-06T19:33:41.398Z,56.44
2023-09-06T19:36:12.697Z,56.85
2023-09-06T19:38:45.521Z,56.82
2023-09-06T19:41:15.809Z,56.86
2023-09-06T19:43:49.417Z,56.89
2023-09-06T19:46:19.576Z,56.20
2023-09-06T19:49:05.041Z,56.82
2023-09-06T19:51:41.416Z,57.17
2023-09-06T19:54:14.447Z,57.13
2023-09-06T19:56:44.583Z,57.04
2023-09-06T19:59:16.277Z,57.19
2023-09-06T20:01:48.854Z,56.86
2023-09-06T20:04:21.553Z,56.81
2023-09-06T20:06:51.864Z,57.29
2023-09-06T20:09:29.379Z,57.15
2023-09-06T20:11:59.504Z,57.48
2023-09-06T20:14:29.939Z,57.35
2023-09-06T20:17:04.407Z,57.07
2023-09-06T20:19:34.680Z,57.60
2023-09-06T20:22:05.157Z,57.49
2023-09-06T20:24:40.109Z,57.46
2023-09-06T20:27:13.457Z,57.66
2023-09-06T20:29:48.189Z,57.36
2023-09-06T20:32:18.537Z,57.94
2023-09-06T20:34:48.783Z,57.65
2023-09-06T20:37:18.845Z,57.64
2023-09-06T20:39:51.576Z,58.13
2023-09-06T20:42:21.828Z,57.94
2023-09-06T20:44:51.904Z,58.21
2023-09-06T20:47:24.791Z,57.82
2023-09-06T20:49:59.874Z,58.32
2023-09-06T20:52:30.860Z,58.11
2023-09-06T20:55:05.822Z,57.98
2023-09-06T20:57:36.267Z,58.01
2023-09-06T21:00:10.655Z,58.15
2023-09-06T21:02:41.211Z,58.01
2023-09-06T21:05:11.994Z,58.09
2023-09-06T21:07:44.389Z,58.31
2023-09-06T21:10:20.190Z,58.41
2023-09-06T21:12:50.290Z,58.58
2023-09-06T21:15:20.600Z,58.34
2023-09-06T21:17:53.689Z,58.48
2023-09-06T21:20:24.673Z,58.61
2023-09-06T21:22:58.066Z,59.06
2023-09-06T21:25:30.858Z,58.64
2023-09-06T21:28:01.025Z,59.29
2023-09-06T21:30:31.710Z,59.17
2023-09-06T21:33:02.111Z,59.12
2023-09-06T21:35:33.029Z,59.41
2023-09-06T21:38:03.351Z,59.64
2023-09-06T21:40:36.162Z,59.47
2023-09-06T21:43:17.560Z,59.46
2023-09-06T21:45:48.824Z,59.36
2023-09-06T21:48:22.086Z,59.61
2023-09-06T21:51:08.543Z,59.54
2023-09-06T21:53:39.596Z,59.45
2023-09-06T21:56:12.844Z,59.38
2023-09-06T21:58:58.495Z,59.53
2023-09-06T22:01:29.395Z,59.21
2023-09-06T22:04:20.184Z,59.94
2023-09-06T22:07:11.109Z,60.02
2023-09-06T22:10:00.541Z,59.69
2023-09-06T22:12:52.258Z,60.01
2023-09-06T22:15:22.906Z,60.23
2023-09-06T22:17:53.142Z,59.81
2023-09-06T22:20:24.615Z,59.91
2023-09-06T22:22:54.759Z,59.99
2023-09-06T22:25:27.593Z,60.21
2023-09-06T22:28:05.808Z,60.38
2023-09-06T22:30:38.039Z,60.42
2023-09-06T22:33:18.052Z,60.60
2023-09-06T22:35:48.275Z,60.72
2023-09-06T22:38:18.639Z,60.68
2023-09-06T22:40:49.077Z,60.67
2023-09-06T22:43:22.516Z,60.75
2023-09-06T22:45:57.166Z,60.53
2023-09-06T22:48:32.135Z,60.55
2023-09-06T22:51:09.981Z,60.98
2023-09-06T22:53:42.899Z,60.73
2023-09-06T22:56:15.672Z,61.35
2023-09-06T22:58:48.425Z,61.29
2023-09-06T23:01:21.056Z,61.09
2023-09-06T23:03:56.294Z,61.43
2023-09-06T23:06:29.363Z,61.20
2023-09-06T23:08:59.606Z,61.11
2023-09-06T23:11:43.203Z,61.36
2023-09-06T23:14:18.747Z,61.30
2023-09-06T23:16:50.382Z,61.68
2023-09-06T23:19:26.325Z,61.98
2023-09-06T23:21:59.815Z,61.80
2023-09-06T23:24:32.411Z,61.82
2023-09-06T23:27:14.786Z,62.05
2023-09-06T23:29:53.463Z,62.08
2023-09-06T23:32:26.520Z,61.89
2023-09-06T23:34:59.270Z,62.14
2023-09-06T23:37:30.422Z,61.92
2023-09-06T23:40:12.481Z,62.19
2023-09-06T23:42:44.409Z,62.36
2023-09-06T23:45:19.722Z,62.39
2023-09-06T23:47:49.825Z,62.55
2023-09-06T23:50:20.106Z,62.16
2023-09-06T23:52:54.110Z,62.12
2023-09-06T23:55:24.827Z,63.98
2023-09-06T23:57:57.258Z,62.61
